Flight Track Log - Related Links

Times and Time Zones

All times are in EDT time to prevent confusion due to time zone crossing. See the EJA829P flight status page for this flight to view local times or setup timezone preferences in your user account.

Time Position Orientation Groundspeed Altitude Reporting Facility
EDT Latitude Longitude Course Direction KTS MPH feet Rate Location/Type
Tue 10:59:38 AM 40.8500 -74.0833 229° Southwest 165 190 1,000  Level New York TRACON
Tue 11:00:38 AM 40.8167 -74.1333 229° Southwest 186 214 1,600 3,379 Climbing New York TRACON
Tue 11:03:04 AM 40.8958 -74.3150 300° West 249 287 12,600 4,165 Climbing New York Center
Tue 11:04:04 AM 40.9456 -74.3917 311° West 289 333 15,900 1,700 Climbing New York Center
Tue 11:05:04 AM 41.0111 -74.4944 310° West 325 374 16,000 100 Climbing New York Center
Tue 11:06:04 AM 41.0667 -74.5853 309° West 325 374 16,100 50 Climbing New York Center
Tue 11:07:04 AM 41.1261 -74.6769 311° West 325 374 16,100  Level New York Center
Tue 11:08:04 AM 41.1669 -74.7675 301° West 325 374 16,100 1,250 Level New York Center
Tue 11:09:04 AM 41.2153 -74.8778 300° West 319 367 18,600 2,200 Climbing New York Center
Tue 11:10:04 AM 41.2614 -74.9856 300° West 324 373 20,500 1,700 Climbing New York Center
Tue 11:11:04 AM 41.3075 -75.0933 300° West 329 379 22,000 1,950 Climbing New York Center
Tue 11:12:04 AM 41.3556 -75.2014 301° West 340 391 24,400 1,500 Climbing New York Center
Tue 11:13:04 AM 41.4033 -75.3153 299° West 345 397 25,000 1,150 Climbing New York Center
Tue 11:14:04 AM 41.4531 -75.4267 301° West 345 397 26,700 1,500 Climbing New York Center
Tue 11:15:04 AM 41.4942 -75.5486 294° West 345 397 28,000 650 Climbing New York Center
Tue 11:16:04 AM 41.5308 -75.6703 292° West 350 403 28,000  Level New York Center
Tue 11:17:04 AM 41.5653 -75.7919 291° West 350 403 28,000  Level New York Center
Tue 11:18:04 AM 41.5994 -75.9167 290° West 356 410 28,000  Level New York Center
Tue 11:19:04 AM 41.6336 -76.0414 290° West 356 410 28,000  Level New York Center
Tue 11:20:04 AM 41.6675 -76.1636 290° West 356 410 28,000  Level New York Center
Tue 11:21:04 AM 41.7033 -76.2914 291° West 356 410 28,000  Level New York Center
Tue 11:22:04 AM 41.7392 -76.4167 291° West 356 410 28,000  Level New York Center
Tue 11:23:04 AM 41.7692 -76.5278 290° West 356 410 28,000  Level New York Center
Tue 11:24:04 AM 41.8047 -76.6561 290° West 356 410 28,000  Level New York Center
Tue 11:25:04 AM 41.8400 -76.7817 291° West 356 410 28,000  Level New York Center
Tue 11:26:21 AM 41.8869 -76.9483 291° West 362 417 28,000  Level Cleveland Center
Tue 11:27:22 AM 41.9208 -77.0756 290° West 362 417 28,000  Level Cleveland Center
Tue 11:28:24 AM 41.9550 -77.2025 290° West 362 417 28,000  Level Cleveland Center
Tue 11:29:25 AM 41.9911 -77.3342 290° West 362 417 28,000  Level Cleveland Center
Tue 11:30:27 AM 42.0239 -77.4564 290° West 362 417 28,000  Level Cleveland Center
Tue 11:31:29 AM 42.0367 -77.5867 278° West 355 409 28,000 -439 Level Cleveland Center
Tue 11:32:30 AM 42.0403 -77.7147 272° West 345 397 27,100 -1,024 Descending Cleveland Center
Tue 11:33:32 AM 42.0453 -77.8719 273° West 346 398 25,900 -1,073 Descending Cleveland Center
Tue 11:34:33 AM 42.0489 -78.0008 272° West 346 398 24,900 -976 Descending Cleveland Center
Tue 11:35:35 AM 42.0519 -78.1286 272° West 345 397 23,900 -976 Descending Cleveland Center
Tue 11:36:36 AM 42.0544 -78.2514 272° West 341 392 22,900 -984 Descending Cleveland Center
Tue 11:37:37 AM 42.0569 -78.3756 272° West 339 390 21,900 -976 Descending Cleveland Center
Tue 11:38:39 AM 42.0600 -78.4975 272° West 333 383 20,900 -976 Descending Cleveland Center
Tue 11:39:40 AM 42.0625 -78.6192 272° West 332 382 19,900 -1,073 Descending Cleveland Center
Tue 11:40:42 AM 42.0653 -78.7619 272° West 323 372 18,700 -1,073 Descending Cleveland Center
Tue 11:41:43 AM 42.0672 -78.8806 271° West 323 372 17,700 -984 Descending Cleveland Center
Tue 11:42:44 AM 42.0694 -78.9975 272° West 319 367 16,700 -976 Descending Cleveland Center
Tue 11:43:46 AM 42.0711 -79.1133 271° West 312 359 15,700 -1,220 Descending Cleveland Center
Tue 11:44:47 AM 42.0725 -79.2278 271° West 307 353 14,200 -1,475 Descending Cleveland Center
Tue 11:45:48 AM 42.0739 -79.3394 271° West 305 351 12,700 -1,463 Descending Cleveland Center
Tue 11:46:50 AM 42.0767 -79.4475 272° West 295 339 11,200 -2,000 Descending Cleveland Center
Tue 11:47:51 AM 42.0775 -79.5617 271° West 253 291 8,600 -2,311 Descending Cleveland Center
Tue 11:48:52 AM 42.0778 -79.6464 270° West 240 276 6,500 -2,066 Descending Cleveland Center
Tue 11:49:53 AM 42.0792 -79.7325 271° West 229 264 4,400 -1,610 Descending Cleveland Center
Tue 11:50:55 AM 42.0797 -79.8267 270° West 236 272 3,200 -585 Descending Cleveland Center
Tue 11:51:56 AM 42.0806 -79.9161 271° West 242 278 3,200  Level Cleveland Center
Tue 11:52:57 AM 42.0867 -79.9936 276° West 213 245 3,200 -146 Level Cleveland Center
Tue 11:53:59 AM 42.1014 -80.0606 287° West 183 211 2,900 -390 Descending Cleveland Center
Tue 11:55:00 AM 42.1111 -80.1156 283° West 175 201 2,400 -492 Descending Cleveland Center
Tue 11:56:00 AM 42.0667 -80.1667 270° West  Level FlightAware Approximate
Tue 12:03:00 PM 42.0831 -80.1739 270° West  Level Estimated
Tue 12:04:00 PM 42.0831 -80.1739 270° West  Level Estimated
Tue 12:05:00 PM 42.0831 -80.1739 270° West  Level Estimated

Login

Don't have an account? Register now (free) for customized features, flight alerts, and more!